sensor_id;sensor_type;location;lat;lon;timestamp;temperature;humidity
42965;DHT22;28604;51.204;22.552;2023-05-10T00:00:34;8.00;64.30
42965;DHT22;28604;51.204;22.552;2023-05-10T00:03:09;8.00;64.10
42965;DHT22;28604;51.204;22.552;2023-05-10T00:05:35;8.00;64.20
42965;DHT22;28604;51.204;22.552;2023-05-10T00:08:01;7.90;64.50
42965;DHT22;28604;51.204;22.552;2023-05-10T00:10:27;7.90;64.50
42965;DHT22;28604;51.204;22.552;2023-05-10T00:12:53;7.90;64.70
42965;DHT22;28604;51.204;22.552;2023-05-10T00:15:19;7.90;64.80
42965;DHT22;28604;51.204;22.552;2023-05-10T00:17:45;7.80;64.80
42965;DHT22;28604;51.204;22.552;2023-05-10T00:20:11;7.80;65.10
42965;DHT22;28604;51.204;22.552;2023-05-10T00:22:37;7.80;65.20
42965;DHT22;28604;51.204;22.552;2023-05-10T00:25:03;7.70;65.30
42965;DHT22;28604;51.204;22.552;2023-05-10T00:27:29;7.70;65.50
42965;DHT22;28604;51.204;22.552;2023-05-10T00:29:55;7.70;65.50
42965;DHT22;28604;51.204;22.552;2023-05-10T00:32:21;7.60;65.50
42965;DHT22;28604;51.204;22.552;2023-05-10T00:34:47;7.70;65.60
42965;DHT22;28604;51.204;22.552;2023-05-10T00:37:13;7.70;65.20
42965;DHT22;28604;51.204;22.552;2023-05-10T00:39:39;7.60;65.40
42965;DHT22;28604;51.204;22.552;2023-05-10T00:42:05;7.60;65.60
42965;DHT22;28604;51.204;22.552;2023-05-10T00:44:31;7.50;65.70
42965;DHT22;28604;51.204;22.552;2023-05-10T00:46:58;7.50;65.80
42965;DHT22;28604;51.204;22.552;2023-05-10T00:49:24;7.50;65.80
42965;DHT22;28604;51.204;22.552;2023-05-10T00:51:51;7.50;66.00
42965;DHT22;28604;51.204;22.552;2023-05-10T00:54:17;7.50;66.00
42965;DHT22;28604;51.204;22.552;2023-05-10T00:56:44;7.40;65.90
42965;DHT22;28604;51.204;22.552;2023-05-10T00:59:16;7.40;66.30
42965;DHT22;28604;51.204;22.552;2023-05-10T01:01:46;7.40;66.10
42965;DHT22;28604;51.204;22.552;2023-05-10T01:04:13;7.40;66.30
42965;DHT22;28604;51.204;22.552;2023-05-10T01:06:43;7.40;66.40
42965;DHT22;28604;51.204;22.552;2023-05-10T01:09:09;7.40;66.40
42965;DHT22;28604;51.204;22.552;2023-05-10T01:11:37;7.40;66.30
42965;DHT22;28604;51.204;22.552;2023-05-10T01:14:03;7.40;66.50
42965;DHT22;28604;51.204;22.552;2023-05-10T01:16:38;7.30;66.90
42965;DHT22;28604;51.204;22.552;2023-05-10T01:19:25;7.20;67.10
42965;DHT22;28604;51.204;22.552;2023-05-10T01:30:18;7.10;67.20
42965;DHT22;28604;51.204;22.552;2023-05-10T01:35:26;7.10;67.10
42965;DHT22;28604;51.204;22.552;2023-05-10T01:38:21;7.10;67.20
42965;DHT22;28604;51.204;22.552;2023-05-10T01:43:26;7.10;67.20
42965;DHT22;28604;51.204;22.552;2023-05-10T01:48:27;7.00;67.70
42965;DHT22;28604;51.204;22.552;2023-05-10T01:50:53;7.00;67.80
42965;DHT22;28604;51.204;22.552;2023-05-10T01:53:21;6.90;67.80
42965;DHT22;28604;51.204;22.552;2023-05-10T01:55:50;6.90;67.70
42965;DHT22;28604;51.204;22.552;2023-05-10T01:58:25;7.00;67.70
42965;DHT22;28604;51.204;22.552;2023-05-10T02:00:53;6.90;67.60
42965;DHT22;28604;51.204;22.552;2023-05-10T02:03:24;6.90;68.00
42965;DHT22;28604;51.204;22.552;2023-05-10T02:05:53;6.90;67.70
42965;DHT22;28604;51.204;22.552;2023-05-10T02:08:22;6.90;67.80
42965;DHT22;28604;51.204;22.552;2023-05-10T02:10:51;6.90;67.50
42965;DHT22;28604;51.204;22.552;2023-05-10T02:13:18;6.80;68.00
42965;DHT22;28604;51.204;22.552;2023-05-10T02:15:48;6.80;68.30
42965;DHT22;28604;51.204;22.552;2023-05-10T02:18:15;6.80;68.30
42965;DHT22;28604;51.204;22.552;2023-05-10T02:20:43;6.80;68.00
42965;DHT22;28604;51.204;22.552;2023-05-10T02:23:11;6.80;68.00
42965;DHT22;28604;51.204;22.552;2023-05-10T02:25:37;6.80;68.00
42965;DHT22;28604;51.204;22.552;2023-05-10T02:28:06;6.80;68.10
42965;DHT22;28604;51.204;22.552;2023-05-10T02:30:33;6.70;68.60
42965;DHT22;28604;51.204;22.552;2023-05-10T02:33:02;6.70;68.30
42965;DHT22;28604;51.204;22.552;2023-05-10T02:35:30;6.70;68.30
42965;DHT22;28604;51.204;22.552;2023-05-10T02:37:58;6.70;68.40
42965;DHT22;28604;51.204;22.552;2023-05-10T02:40:25;6.60;68.50
42965;DHT22;28604;51.204;22.552;2023-05-10T02:42:54;6.70;68.60
42965;DHT22;28604;51.204;22.552;2023-05-10T02:45:24;6.70;68.10
42965;DHT22;28604;51.204;22.552;2023-05-10T02:47:52;6.70;68.30
42965;DHT22;28604;51.204;22.552;2023-05-10T02:50:20;6.70;68.50
42965;DHT22;28604;51.204;22.552;2023-05-10T02:52:50;6.60;68.60
42965;DHT22;28604;51.204;22.552;2023-05-10T02:55:21;6.60;68.60
42965;DHT22;28604;51.204;22.552;2023-05-10T02:57:54;6.50;68.80
42965;DHT22;28604;51.204;22.552;2023-05-10T03:00:22;6.60;69.20
42965;DHT22;28604;51.204;22.552;2023-05-10T03:02:48;6.50;69.30
42965;DHT22;28604;51.204;22.552;2023-05-10T03:05:14;6.50;69.10
42965;DHT22;28604;51.204;22.552;2023-05-10T03:07:40;6.50;69.50
42965;DHT22;28604;51.204;22.552;2023-05-10T03:10:06;6.40;69.60
42965;DHT22;28604;51.204;22.552;2023-05-10T03:12:47;6.40;69.30
42965;DHT22;28604;51.204;22.552;2023-05-10T03:15:22;6.40;69.40
42965;DHT22;28604;51.204;22.552;2023-05-10T03:18:29;6.40;69.90
42965;DHT22;28604;51.204;22.552;2023-05-10T03:21:03;6.40;69.40
42965;DHT22;28604;51.204;22.552;2023-05-10T03:23:43;6.50;69.00
42965;DHT22;28604;51.204;22.552;2023-05-10T03:26:23;6.50;69.10
42965;DHT22;28604;51.204;22.552;2023-05-10T03:28:51;6.50;69.20
42965;DHT22;28604;51.204;22.552;2023-05-10T03:31:18;6.50;69.20
42965;DHT22;28604;51.204;22.552;2023-05-10T03:33:51;6.50;69.40
42965;DHT22;28604;51.204;22.552;2023-05-10T03:36:23;6.40;69.30
42965;DHT22;28604;51.204;22.552;2023-05-10T03:38:49;6.50;69.50
42965;DHT22;28604;51.204;22.552;2023-05-10T03:41:15;6.50;69.50
42965;DHT22;28604;51.204;22.552;2023-05-10T03:43:42;6.50;69.40
42965;DHT22;28604;51.204;22.552;2023-05-10T03:46:07;6.40;69.60
42965;DHT22;28604;51.204;22.552;2023-05-10T03:48:34;6.40;70.00
42965;DHT22;28604;51.204;22.552;2023-05-10T03:51:00;6.40;70.20
42965;DHT22;28604;51.204;22.552;2023-05-10T03:53:26;6.40;70.00
42965;DHT22;28604;51.204;22.552;2023-05-10T03:55:52;6.50;69.90
42965;DHT22;28604;51.204;22.552;2023-05-10T03:58:18;6.50;69.80
42965;DHT22;28604;51.204;22.552;2023-05-10T04:00:45;6.50;69.80
42965;DHT22;28604;51.204;22.552;2023-05-10T04:03:12;6.60;70.00
42965;DHT22;28604;51.204;22.552;2023-05-10T04:05:38;6.60;69.80
42965;DHT22;28604;51.204;22.552;2023-05-10T04:08:05;6.60;70.30
42965;DHT22;28604;51.204;22.552;2023-05-10T04:10:31;6.60;69.80
42965;DHT22;28604;51.204;22.552;2023-05-10T04:12:57;6.60;70.10
42965;DHT22;28604;51.204;22.552;2023-05-10T04:15:23;6.70;69.90
42965;DHT22;28604;51.204;22.552;2023-05-10T04:17:49;6.70;70.20
42965;DHT22;28604;51.204;22.552;2023-05-10T04:20:15;6.70;70.20
42965;DHT22;28604;51.204;22.552;2023-05-10T04:22:42;6.80;70.00
42965;DHT22;28604;51.204;22.552;2023-05-10T04:25:08;6.80;70.00
42965;DHT22;28604;51.204;22.552;2023-05-10T04:27:34;6.90;69.90
42965;DHT22;28604;51.204;22.552;2023-05-10T04:30:00;7.00;69.80
42965;DHT22;28604;51.204;22.552;2023-05-10T04:32:26;7.00;69.70
42965;DHT22;28604;51.204;22.552;2023-05-10T04:34:52;7.00;70.00
42965;DHT22;28604;51.204;22.552;2023-05-10T04:37:18;7.00;70.00
42965;DHT22;28604;51.204;22.552;2023-05-10T04:39:45;7.10;69.80
42965;DHT22;28604;51.204;22.552;2023-05-10T04:42:11;7.10;70.00
42965;DHT22;28604;51.204;22.552;2023-05-10T04:44:37;7.20;69.90
42965;DHT22;28604;51.204;22.552;2023-05-10T04:47:03;7.30;69.80
42965;DHT22;28604;51.204;22.552;2023-05-10T04:49:29;7.30;70.00
42965;DHT22;28604;51.204;22.552;2023-05-10T04:51:55;7.40;70.10
42965;DHT22;28604;51.204;22.552;2023-05-10T04:54:21;7.40;69.90
42965;DHT22;28604;51.204;22.552;2023-05-10T04:56:47;7.50;70.00
42965;DHT22;28604;51.204;22.552;2023-05-10T04:59:13;7.50;69.50
42965;DHT22;28604;51.204;22.552;2023-05-10T05:01:39;7.60;69.60
42965;DHT22;28604;51.204;22.552;2023-05-10T05:04:05;7.60;70.00
42965;DHT22;28604;51.204;22.552;2023-05-10T05:06:32;7.70;70.00
42965;DHT22;28604;51.204;22.552;2023-05-10T05:08:58;7.70;70.10
42965;DHT22;28604;51.204;22.552;2023-05-10T05:11:24;7.80;70.00
42965;DHT22;28604;51.204;22.552;2023-05-10T05:13:51;7.80;69.80
42965;DHT22;28604;51.204;22.552;2023-05-10T05:16:17;8.00;69.50
42965;DHT22;28604;51.204;22.552;2023-05-10T05:18:43;8.10;68.90
42965;DHT22;28604;51.204;22.552;2023-05-10T05:21:19;8.20;68.80
42965;DHT22;28604;51.204;22.552;2023-05-10T05:23:45;8.30;69.00
42965;DHT22;28604;51.204;22.552;2023-05-10T05:26:11;8.50;69.00
42965;DHT22;28604;51.204;22.552;2023-05-10T05:28:37;8.60;68.80
42965;DHT22;28604;51.204;22.552;2023-05-10T05:31:04;8.70;68.60
42965;DHT22;28604;51.204;22.552;2023-05-10T05:33:31;8.90;68.60
42965;DHT22;28604;51.204;22.552;2023-05-10T05:35:57;8.90;68.50
42965;DHT22;28604;51.204;22.552;2023-05-10T05:38:23;8.90;68.90
42965;DHT22;28604;51.204;22.552;2023-05-10T05:40:49;9.10;69.30
42965;DHT22;28604;51.204;22.552;2023-05-10T05:43:15;9.20;69.40
42965;DHT22;28604;51.204;22.552;2023-05-10T05:45:41;9.40;69.40
42965;DHT22;28604;51.204;22.552;2023-05-10T05:48:07;9.60;69.40
42965;DHT22;28604;51.204;22.552;2023-05-10T05:50:33;9.80;69.10
42965;DHT22;28604;51.204;22.552;2023-05-10T05:52:59;10.10;68.70
42965;DHT22;28604;51.204;22.552;2023-05-10T05:55:25;10.50;68.00
42965;DHT22;28604;51.204;22.552;2023-05-10T05:57:51;10.70;67.20
42965;DHT22;28604;51.204;22.552;2023-05-10T06:00:17;10.90;67.00
42965;DHT22;28604;51.204;22.552;2023-05-10T06:02:44;11.20;65.90
42965;DHT22;28604;51.204;22.552;2023-05-10T06:05:10;11.60;64.90
42965;DHT22;28604;51.204;22.552;2023-05-10T06:07:36;11.90;64.00
42965;DHT22;28604;51.204;22.552;2023-05-10T06:10:02;12.30;62.90
42965;DHT22;28604;51.204;22.552;2023-05-10T06:12:28;12.70;62.30
42965;DHT22;28604;51.204;22.552;2023-05-10T06:14:54;13.10;61.50
42965;DHT22;28604;51.204;22.552;2023-05-10T06:17:20;13.60;60.30
42965;DHT22;28604;51.204;22.552;2023-05-10T06:19:47;14.10;59.40
42965;DHT22;28604;51.204;22.552;2023-05-10T06:22:13;14.40;58.30
42965;DHT22;28604;51.204;22.552;2023-05-10T06:24:39;14.70;57.90
42965;DHT22;28604;51.204;22.552;2023-05-10T06:27:05;15.00;57.40
42965;DHT22;28604;51.204;22.552;2023-05-10T06:29:32;15.30;57.20
42965;DHT22;28604;51.204;22.552;2023-05-10T06:31:58;15.80;56.80
42965;DHT22;28604;51.204;22.552;2023-05-10T06:34:24;16.30;55.40
42965;DHT22;28604;51.204;22.552;2023-05-10T06:36:50;16.60;54.30
42965;DHT22;28604;51.204;22.552;2023-05-10T06:39:17;16.60;53.50
42965;DHT22;28604;51.204;22.552;2023-05-10T06:41:43;16.60;53.30
42965;DHT22;28604;51.204;22.552;2023-05-10T06:44:09;16.60;53.50
42965;DHT22;28604;51.204;22.552;2023-05-10T06:46:35;16.80;53.90
42965;DHT22;28604;51.204;22.552;2023-05-10T06:49:00;17.00;52.80
42965;DHT22;28604;51.204;22.552;2023-05-10T06:51:26;17.10;51.60
42965;DHT22;28604;51.204;22.552;2023-05-10T06:53:52;17.00;52.00
42965;DHT22;28604;51.204;22.552;2023-05-10T06:56:18;17.10;53.00
42965;DHT22;28604;51.204;22.552;2023-05-10T06:58:47;17.20;51.90
42965;DHT22;28604;51.204;22.552;2023-05-10T07:01:13;17.30;52.00
42965;DHT22;28604;51.204;22.552;2023-05-10T07:03:39;17.40;52.70
42965;DHT22;28604;51.204;22.552;2023-05-10T07:06:06;17.70;52.20
42965;DHT22;28604;51.204;22.552;2023-05-10T07:08:35;18.00;52.00
42965;DHT22;28604;51.204;22.552;2023-05-10T07:11:06;18.40;51.10
42965;DHT22;28604;51.204;22.552;2023-05-10T07:13:35;18.80;50.40
42965;DHT22;28604;51.204;22.552;2023-05-10T07:16:02;19.10;50.40
42965;DHT22;28604;51.204;22.552;2023-05-10T07:18:28;19.30;49.30
42965;DHT22;28604;51.204;22.552;2023-05-10T07:20:54;19.70;48.40
42965;DHT22;28604;51.204;22.552;2023-05-10T07:23:20;20.10;48.20
42965;DHT22;28604;51.204;22.552;2023-05-10T07:25:48;20.40;47.30
42965;DHT22;28604;51.204;22.552;2023-05-10T07:28:14;20.70;47.40
42965;DHT22;28604;51.204;22.552;2023-05-10T07:30:41;21.00;46.40
42965;DHT22;28604;51.204;22.552;2023-05-10T07:33:07;20.80;46.30
42965;DHT22;28604;51.204;22.552;2023-05-10T07:35:34;21.20;46.60
42965;DHT22;28604;51.204;22.552;2023-05-10T07:38:00;21.60;46.10
42965;DHT22;28604;51.204;22.552;2023-05-10T07:40:27;21.90;43.40
42965;DHT22;28604;51.204;22.552;2023-05-10T07:42:53;21.70;44.70
42965;DHT22;28604;51.204;22.552;2023-05-10T07:45:19;21.70;44.30
42965;DHT22;28604;51.204;22.552;2023-05-10T07:47:45;22.10;43.10
42965;DHT22;28604;51.204;22.552;2023-05-10T07:50:11;22.40;40.90
42965;DHT22;28604;51.204;22.552;2023-05-10T07:52:37;22.00;41.60
42965;DHT22;28604;51.204;22.552;2023-05-10T07:55:03;22.40;41.90
42965;DHT22;28604;51.204;22.552;2023-05-10T07:57:29;22.70;41.10
42965;DHT22;28604;51.204;22.552;2023-05-10T07:59:55;22.90;41.60
42965;DHT22;28604;51.204;22.552;2023-05-10T08:02:21;23.00;41.10
42965;DHT22;28604;51.204;22.552;2023-05-10T08:04:47;23.30;39.20
42965;DHT22;28604;51.204;22.552;2023-05-10T08:07:12;22.80;39.10
42965;DHT22;28604;51.204;22.552;2023-05-10T08:09:39;22.60;39.40
42965;DHT22;28604;51.204;22.552;2023-05-10T08:12:05;22.50;37.90
42965;DHT22;28604;51.204;22.552;2023-05-10T08:14:31;22.20;38.90
42965;DHT22;28604;51.204;22.552;2023-05-10T08:16:57;22.10;38.70
42965;DHT22;28604;51.204;22.552;2023-05-10T08:19:23;21.90;38.10
42965;DHT22;28604;51.204;22.552;2023-05-10T08:21:49;21.20;38.10
42965;DHT22;28604;51.204;22.552;2023-05-10T08:24:15;21.10;38.80
42965;DHT22;28604;51.204;22.552;2023-05-10T08:26:41;21.00;37.10
42965;DHT22;28604;51.204;22.552;2023-05-10T08:29:07;21.70;37.90
42965;DHT22;28604;51.204;22.552;2023-05-10T08:31:33;22.00;38.20
42965;DHT22;28604;51.204;22.552;2023-05-10T08:33:59;22.70;38.00
42965;DHT22;28604;51.204;22.552;2023-05-10T08:36:25;22.40;37.90
42965;DHT22;28604;51.204;22.552;2023-05-10T08:38:52;22.60;37.80
42965;DHT22;28604;51.204;22.552;2023-05-10T08:41:22;22.90;37.00
42965;DHT22;28604;51.204;22.552;2023-05-10T08:43:50;23.10;36.80
42965;DHT22;28604;51.204;22.552;2023-05-10T08:46:18;22.80;35.10
42965;DHT22;28604;51.204;22.552;2023-05-10T08:48:46;22.10;36.30
42965;DHT22;28604;51.204;22.552;2023-05-10T08:51:18;21.90;38.60
42965;DHT22;28604;51.204;22.552;2023-05-10T08:53:45;21.60;39.10
42965;DHT22;28604;51.204;22.552;2023-05-10T08:56:11;21.70;38.50
42965;DHT22;28604;51.204;22.552;2023-05-10T08:58:38;21.30;37.90
42965;DHT22;28604;51.204;22.552;2023-05-10T09:01:05;21.10;37.50
42965;DHT22;28604;51.204;22.552;2023-05-10T09:03:31;20.50;37.60
42965;DHT22;28604;51.204;22.552;2023-05-10T09:05:58;20.30;39.10
42965;DHT22;28604;51.204;22.552;2023-05-10T09:08:25;20.00;38.60
42965;DHT22;28604;51.204;22.552;2023-05-10T09:10:51;19.80;39.10
42965;DHT22;28604;51.204;22.552;2023-05-10T09:13:18;20.10;39.10
42965;DHT22;28604;51.204;22.552;2023-05-10T09:15:45;19.80;39.30
42965;DHT22;28604;51.204;22.552;2023-05-10T09:18:11;19.70;39.00
42965;DHT22;28604;51.204;22.552;2023-05-10T09:20:37;19.60;39.00
42965;DHT22;28604;51.204;22.552;2023-05-10T09:23:03;19.60;39.50
42965;DHT22;28604;51.204;22.552;2023-05-10T09:25:29;19.60;40.40
42965;DHT22;28604;51.204;22.552;2023-05-10T09:27:55;19.40;39.70
42965;DHT22;28604;51.204;22.552;2023-05-10T09:30:29;19.30;38.80
42965;DHT22;28604;51.204;22.552;2023-05-10T09:32:56;19.00;40.00
42965;DHT22;28604;51.204;22.552;2023-05-10T09:35:29;19.40;40.60
42965;DHT22;28604;51.204;22.552;2023-05-10T09:37:59;19.00;40.40
42965;DHT22;28604;51.204;22.552;2023-05-10T09:40:27;18.40;40.90
42965;DHT22;28604;51.204;22.552;2023-05-10T09:42:59;18.60;41.70
42965;DHT22;28604;51.204;22.552;2023-05-10T09:45:27;19.00;41.20
42965;DHT22;28604;51.204;22.552;2023-05-10T09:47:53;19.10;40.90
42965;DHT22;28604;51.204;22.552;2023-05-10T09:50:20;19.20;41.00
42965;DHT22;28604;51.204;22.552;2023-05-10T09:55:16;19.20;41.90
42965;DHT22;28604;51.204;22.552;2023-05-10T09:57:42;19.20;41.10
42965;DHT22;28604;51.204;22.552;2023-05-10T10:00:09;19.10;42.80
42965;DHT22;28604;51.204;22.552;2023-05-10T10:02:40;19.40;41.20
42965;DHT22;28604;51.204;22.552;2023-05-10T10:05:07;19.50;41.40
42965;DHT22;28604;51.204;22.552;2023-05-10T10:07:33;19.10;40.00
42965;DHT22;28604;51.204;22.552;2023-05-10T10:10:00;19.00;41.40
42965;DHT22;28604;51.204;22.552;2023-05-10T10:12:26;18.90;42.40
42965;DHT22;28604;51.204;22.552;2023-05-10T10:14:53;19.00;42.30
42965;DHT22;28604;51.204;22.552;2023-05-10T10:17:19;18.90;42.10
42965;DHT22;28604;51.204;22.552;2023-05-10T10:19:46;18.70;42.30
42965;DHT22;28604;51.204;22.552;2023-05-10T10:22:13;18.70;41.70
42965;DHT22;28604;51.204;22.552;2023-05-10T10:24:40;18.60;42.90
42965;DHT22;28604;51.204;22.552;2023-05-10T10:27:26;18.90;42.80
42965;DHT22;28604;51.204;22.552;2023-05-10T10:35:29;19.40;40.10
42965;DHT22;28604;51.204;22.552;2023-05-10T10:37:56;18.90;41.40
42965;DHT22;28604;51.204;22.552;2023-05-10T10:42:52;18.50;41.40
42965;DHT22;28604;51.204;22.552;2023-05-10T10:45:20;18.60;42.50
42965;DHT22;28604;51.204;22.552;2023-05-10T10:47:46;18.80;42.60
42965;DHT22;28604;51.204;22.552;2023-05-10T10:50:13;18.90;41.10
42965;DHT22;28604;51.204;22.552;2023-05-10T10:52:40;18.80;42.50
42965;DHT22;28604;51.204;22.552;2023-05-10T10:55:18;19.10;44.10
42965;DHT22;28604;51.204;22.552;2023-05-10T10:57:57;19.40;41.80
42965;DHT22;28604;51.204;22.552;2023-05-10T11:00:32;19.70;40.50
42965;DHT22;28604;51.204;22.552;2023-05-10T11:03:05;19.40;39.40
42965;DHT22;28604;51.204;22.552;2023-05-10T11:05:40;18.90;40.10
42965;DHT22;28604;51.204;22.552;2023-05-10T11:08:09;18.60;41.00
42965;DHT22;28604;51.204;22.552;2023-05-10T11:10:36;18.60;40.90
42965;DHT22;28604;51.204;22.552;2023-05-10T11:13:06;18.70;42.70
42965;DHT22;28604;51.204;22.552;2023-05-10T11:15:36;18.80;40.80
42965;DHT22;28604;51.204;22.552;2023-05-10T11:18:23;18.90;42.00
42965;DHT22;28604;51.204;22.552;2023-05-10T11:20:51;19.00;40.80
42965;DHT22;28604;51.204;22.552;2023-05-10T11:23:17;18.90;40.40
42965;DHT22;28604;51.204;22.552;2023-05-10T11:25:45;18.90;41.70
42965;DHT22;28604;51.204;22.552;2023-05-10T11:28:12;19.00;40.80
42965;DHT22;28604;51.204;22.552;2023-05-10T11:30:39;18.80;40.70
42965;DHT22;28604;51.204;22.552;2023-05-10T11:33:06;19.00;40.50
42965;DHT22;28604;51.204;22.552;2023-05-10T11:35:40;19.00;40.50
42965;DHT22;28604;51.204;22.552;2023-05-10T11:38:07;18.60;40.00
42965;DHT22;28604;51.204;22.552;2023-05-10T11:40:34;18.20;40.40
42965;DHT22;28604;51.204;22.552;2023-05-10T11:43:00;18.10;42.00
42965;DHT22;28604;51.204;22.552;2023-05-10T11:45:26;18.40;42.50
42965;DHT22;28604;51.204;22.552;2023-05-10T11:47:53;18.70;39.80
42965;DHT22;28604;51.204;22.552;2023-05-10T11:50:19;18.90;41.30
42965;DHT22;28604;51.204;22.552;2023-05-10T11:52:45;18.80;40.00
42965;DHT22;28604;51.204;22.552;2023-05-10T11:55:12;19.00;39.90
42965;DHT22;28604;51.204;22.552;2023-05-10T11:57:37;18.90;38.80
42965;DHT22;28604;51.204;22.552;2023-05-10T12:00:09;18.80;40.70
42965;DHT22;28604;51.204;22.552;2023-05-10T12:02:36;18.90;41.10
42965;DHT22;28604;51.204;22.552;2023-05-10T12:05:03;19.00;40.70
42965;DHT22;28604;51.204;22.552;2023-05-10T12:07:29;19.10;39.90
42965;DHT22;28604;51.204;22.552;2023-05-10T12:10:12;19.20;40.90
42965;DHT22;28604;51.204;22.552;2023-05-10T12:12:47;19.10;39.40
42965;DHT22;28604;51.204;22.552;2023-05-10T12:15:21;19.20;39.90
42965;DHT22;28604;51.204;22.552;2023-05-10T12:17:48;19.20;39.10
42965;DHT22;28604;51.204;22.552;2023-05-10T12:20:17;18.90;39.20
42965;DHT22;28604;51.204;22.552;2023-05-10T12:22:49;18.70;41.10
42965;DHT22;28604;51.204;22.552;2023-05-10T12:25:16;18.70;41.20
42965;DHT22;28604;51.204;22.552;2023-05-10T12:27:55;18.90;40.40
42965;DHT22;28604;51.204;22.552;2023-05-10T12:30:29;19.10;39.70
42965;DHT22;28604;51.204;22.552;2023-05-10T12:33:07;19.10;40.40
42965;DHT22;28604;51.204;22.552;2023-05-10T12:35:42;19.00;39.40
42965;DHT22;28604;51.204;22.552;2023-05-10T12:38:28;19.10;39.80
42965;DHT22;28604;51.204;22.552;2023-05-10T12:41:07;19.10;39.00
42965;DHT22;28604;51.204;22.552;2023-05-10T12:43:33;19.10;39.00
42965;DHT22;28604;51.204;22.552;2023-05-10T12:46:11;19.10;38.80
42965;DHT22;28604;51.204;22.552;2023-05-10T12:48:38;18.90;38.90
42965;DHT22;28604;51.204;22.552;2023-05-10T12:51:05;18.80;39.70
42965;DHT22;28604;51.204;22.552;2023-05-10T12:53:34;18.90;40.80
42965;DHT22;28604;51.204;22.552;2023-05-10T12:56:00;18.80;40.20
42965;DHT22;28604;51.204;22.552;2023-05-10T12:58:26;18.70;41.00
42965;DHT22;28604;51.204;22.552;2023-05-10T13:00:52;18.80;40.20
42965;DHT22;28604;51.204;22.552;2023-05-10T13:03:18;18.90;39.50
42965;DHT22;28604;51.204;22.552;2023-05-10T13:05:44;18.80;39.10
42965;DHT22;28604;51.204;22.552;2023-05-10T13:08:10;18.70;39.10
42965;DHT22;28604;51.204;22.552;2023-05-10T13:10:36;18.70;40.50
42965;DHT22;28604;51.204;22.552;2023-05-10T13:13:02;18.80;39.70
42965;DHT22;28604;51.204;22.552;2023-05-10T13:15:28;18.70;40.60
42965;DHT22;28604;51.204;22.552;2023-05-10T13:17:54;18.60;39.80
42965;DHT22;28604;51.204;22.552;2023-05-10T13:20:20;18.60;40.50
42965;DHT22;28604;51.204;22.552;2023-05-10T13:22:46;18.60;40.30
42965;DHT22;28604;51.204;22.552;2023-05-10T13:25:13;18.50;40.30
42965;DHT22;28604;51.204;22.552;2023-05-10T13:27:39;18.60;40.20
42965;DHT22;28604;51.204;22.552;2023-05-10T13:30:09;18.70;40.30
42965;DHT22;28604;51.204;22.552;2023-05-10T13:32:36;18.70;40.30
42965;DHT22;28604;51.204;22.552;2023-05-10T13:35:03;18.70;39.50
42965;DHT22;28604;51.204;22.552;2023-05-10T13:37:30;18.50;40.90
42965;DHT22;28604;51.204;22.552;2023-05-10T13:39:57;18.50;40.60
42965;DHT22;28604;51.204;22.552;2023-05-10T13:42:23;18.50;41.50
42965;DHT22;28604;51.204;22.552;2023-05-10T13:44:50;18.70;41.70
42965;DHT22;28604;51.204;22.552;2023-05-10T13:47:16;18.70;42.10
42965;DHT22;28604;51.204;22.552;2023-05-10T13:49:42;18.80;41.60
42965;DHT22;28604;51.204;22.552;2023-05-10T13:52:08;19.00;40.00
42965;DHT22;28604;51.204;22.552;2023-05-10T13:54:36;19.00;40.30
42965;DHT22;28604;51.204;22.552;2023-05-10T14:00:43;19.10;40.10
42965;DHT22;28604;51.204;22.552;2023-05-10T14:03:09;18.90;41.20
42965;DHT22;28604;51.204;22.552;2023-05-10T14:05:36;18.90;41.40
42965;DHT22;28604;51.204;22.552;2023-05-10T14:08:02;19.00;40.60
42965;DHT22;28604;51.204;22.552;2023-05-10T14:10:29;19.10;40.00
42965;DHT22;28604;51.204;22.552;2023-05-10T14:12:55;19.00;40.10
42965;DHT22;28604;51.204;22.552;2023-05-10T14:15:22;18.90;39.10
42965;DHT22;28604;51.204;22.552;2023-05-10T14:17:47;18.80;40.80
42965;DHT22;28604;51.204;22.552;2023-05-10T14:20:13;18.90;39.80
42965;DHT22;28604;51.204;22.552;2023-05-10T14:22:39;18.90;40.60
42965;DHT22;28604;51.204;22.552;2023-05-10T14:25:06;18.90;40.40
42965;DHT22;28604;51.204;22.552;2023-05-10T14:27:32;18.90;40.10
42965;DHT22;28604;51.204;22.552;2023-05-10T14:29:58;18.80;40.20
42965;DHT22;28604;51.204;22.552;2023-05-10T14:32:24;18.90;41.20
42965;DHT22;28604;51.204;22.552;2023-05-10T14:34:50;18.90;39.10
42965;DHT22;28604;51.204;22.552;2023-05-10T14:37:16;19.00;39.60
42965;DHT22;28604;51.204;22.552;2023-05-10T14:39:42;19.00;39.60
42965;DHT22;28604;51.204;22.552;2023-05-10T14:42:08;19.00;40.10
42965;DHT22;28604;51.204;22.552;2023-05-10T14:44:34;19.00;39.40
42965;DHT22;28604;51.204;22.552;2023-05-10T14:47:00;19.10;39.70
42965;DHT22;28604;51.204;22.552;2023-05-10T14:49:26;19.10;41.20
42965;DHT22;28604;51.204;22.552;2023-05-10T14:51:52;19.20;39.70
42965;DHT22;28604;51.204;22.552;2023-05-10T14:57:31;19.00;40.60
42965;DHT22;28604;51.204;22.552;2023-05-10T14:59:58;18.90;40.30
42965;DHT22;28604;51.204;22.552;2023-05-10T15:02:24;18.90;41.20
42965;DHT22;28604;51.204;22.552;2023-05-10T15:04:50;18.70;40.60
42965;DHT22;28604;51.204;22.552;2023-05-10T15:07:44;18.70;40.70
42965;DHT22;28604;51.204;22.552;2023-05-10T15:10:10;18.70;39.60
42965;DHT22;28604;51.204;22.552;2023-05-10T15:12:37;18.50;40.00
42965;DHT22;28604;51.204;22.552;2023-05-10T15:15:04;18.50;40.40
42965;DHT22;28604;51.204;22.552;2023-05-10T15:17:30;18.50;40.30
42965;DHT22;28604;51.204;22.552;2023-05-10T15:19:56;18.60;40.40
42965;DHT22;28604;51.204;22.552;2023-05-10T15:22:22;18.50;40.30
42965;DHT22;28604;51.204;22.552;2023-05-10T15:24:48;18.40;40.60
42965;DHT22;28604;51.204;22.552;2023-05-10T15:27:14;18.40;40.20
42965;DHT22;28604;51.204;22.552;2023-05-10T15:29:40;18.40;40.30
42965;DHT22;28604;51.204;22.552;2023-05-10T15:32:06;18.40;40.90
42965;DHT22;28604;51.204;22.552;2023-05-10T15:34:32;18.30;40.90
42965;DHT22;28604;51.204;22.552;2023-05-10T15:36:58;18.30;41.50
42965;DHT22;28604;51.204;22.552;2023-05-10T15:39:24;18.40;41.40
42965;DHT22;28604;51.204;22.552;2023-05-10T15:41:50;18.50;40.30
42965;DHT22;28604;51.204;22.552;2023-05-10T15:44:16;18.30;39.70
42965;DHT22;28604;51.204;22.552;2023-05-10T15:46:44;18.20;40.40
42965;DHT22;28604;51.204;22.552;2023-05-10T15:49:10;18.10;40.80
42965;DHT22;28604;51.204;22.552;2023-05-10T15:51:35;18.00;41.20
42965;DHT22;28604;51.204;22.552;2023-05-10T15:54:02;18.00;41.50
42965;DHT22;28604;51.204;22.552;2023-05-10T15:56:28;18.00;41.10
42965;DHT22;28604;51.204;22.552;2023-05-10T15:58:54;18.00;40.90